createdAt,value
2023-05-09T00:02:07.904Z,17.43
2023-05-09T00:04:35.364Z,17.45
2023-05-09T00:07:02.137Z,17.43
2023-05-09T00:09:28.772Z,17.40
2023-05-09T00:11:55.554Z,17.34
2023-05-09T00:14:22.140Z,17.30
2023-05-09T00:16:49.205Z,17.25
2023-05-09T00:19:15.959Z,17.16
2023-05-09T00:21:42.743Z,17.16
2023-05-09T00:24:09.290Z,17.13
2023-05-09T00:26:35.995Z,17.04
2023-05-09T00:29:02.650Z,17.08
2023-05-09T00:31:29.435Z,17.11
2023-05-09T00:33:56.080Z,17.07
2023-05-09T00:36:23.349Z,17.00
2023-05-09T00:38:50.064Z,17.02
2023-05-09T00:41:16.785Z,17.00
2023-05-09T00:43:43.384Z,17.06
2023-05-09T00:46:10.179Z,17.07
2023-05-09T00:48:36.852Z,17.07
2023-05-09T00:51:04.864Z,17.03
2023-05-09T00:53:31.653Z,16.99
2023-05-09T00:56:00.286Z,17.08
2023-05-09T00:58:27.511Z,17.14
2023-05-09T01:00:54.243Z,17.17
2023-05-09T01:03:21.170Z,17.16
2023-05-09T01:06:26.568Z,17.16
2023-05-09T01:09:01.248Z,17.14
2023-05-09T01:12:05.412Z,17.15
2023-05-09T01:14:50.589Z,17.14
2023-05-09T01:17:46.828Z,17.12
2023-05-09T01:20:24.358Z,17.07
2023-05-09T01:23:01.995Z,17.02
2023-05-09T01:25:38.034Z,17.08
2023-05-09T01:28:14.303Z,17.07
2023-05-09T01:30:45.813Z,16.99
2023-05-09T01:33:18.093Z,16.99
2023-05-09T01:35:52.147Z,16.95
2023-05-09T01:38:23.079Z,16.91
2023-05-09T01:40:54.436Z,17.01
2023-05-09T01:43:23.595Z,17.04
2023-05-09T01:45:52.460Z,17.04
2023-05-09T01:48:21.706Z,17.04
2023-05-09T01:50:49.089Z,16.98
2023-05-09T01:53:17.766Z,16.98
2023-05-09T01:55:45.925Z,16.95
2023-05-09T01:58:13.409Z,17.09
2023-05-09T02:00:41.114Z,17.12
2023-05-09T02:03:08.974Z,17.13
2023-05-09T02:05:37.278Z,17.12
2023-05-09T02:08:04.157Z,17.13
2023-05-09T02:10:34.256Z,17.13
2023-05-09T02:13:01.268Z,17.08
2023-05-09T02:15:29.523Z,17.04
2023-05-09T02:17:56.695Z,16.93
2023-05-09T02:20:23.381Z,16.78
2023-05-09T02:22:50.644Z,16.79
2023-05-09T02:25:18.596Z,16.74
2023-05-09T02:27:46.649Z,16.79
2023-05-09T02:30:23.320Z,16.86
2023-05-09T02:32:53.736Z,16.85
2023-05-09T02:35:23.026Z,16.85
2023-05-09T02:37:49.912Z,16.87
2023-05-09T02:40:17.779Z,16.88
2023-05-09T02:42:44.594Z,16.93
2023-05-09T02:45:11.505Z,16.83
2023-05-09T02:47:38.998Z,16.80
2023-05-09T02:50:06.456Z,16.76
2023-05-09T02:52:35.504Z,16.80
2023-05-09T02:55:03.054Z,16.79
2023-05-09T02:57:31.147Z,16.77
2023-05-09T02:59:57.787Z,16.81
2023-05-09T03:02:24.811Z,16.78
2023-05-09T03:04:51.820Z,16.74
2023-05-09T03:07:18.845Z,16.72
2023-05-09T03:09:45.575Z,16.73
2023-05-09T03:12:12.903Z,16.77
2023-05-09T03:14:39.602Z,16.78
2023-05-09T03:17:06.309Z,16.70
2023-05-09T03:19:35.588Z,16.63
2023-05-09T03:22:02.479Z,16.60
2023-05-09T03:24:32.377Z,16.65
2023-05-09T03:26:59.053Z,16.67
2023-05-09T03:29:25.969Z,16.67
2023-05-09T03:31:54.045Z,16.63
2023-05-09T03:34:20.707Z,16.60
2023-05-09T03:36:47.910Z,16.56
2023-05-09T03:39:15.354Z,16.61
2023-05-09T03:41:45.269Z,16.59
2023-05-09T03:44:12.665Z,16.52
2023-05-09T03:46:39.311Z,16.52
2023-05-09T03:49:06.637Z,16.51
2023-05-09T03:51:34.476Z,16.49
2023-05-09T03:54:05.024Z,16.47
2023-05-09T03:56:32.444Z,16.53
2023-05-09T03:58:59.670Z,16.55
2023-05-09T04:01:27.619Z,16.56
2023-05-09T04:03:57.726Z,16.59
2023-05-09T04:06:25.812Z,16.64
2023-05-09T04:08:52.599Z,16.68
2023-05-09T04:11:19.264Z,16.68
2023-05-09T04:13:47.643Z,16.60
2023-05-09T04:16:25.163Z,16.52
2023-05-09T04:18:51.924Z,16.59
2023-05-09T04:21:18.548Z,16.50
2023-05-09T04:23:48.542Z,16.53
2023-05-09T04:26:17.989Z,16.55
2023-05-09T04:28:47.811Z,16.55
2023-05-09T04:31:16.258Z,16.51
2023-05-09T04:33:46.849Z,16.56
2023-05-09T04:36:13.553Z,16.52
2023-05-09T04:38:40.682Z,16.50
2023-05-09T04:41:11.810Z,16.44
2023-05-09T04:43:38.463Z,16.50
2023-05-09T04:46:07.796Z,16.47
2023-05-09T04:48:35.959Z,16.47
2023-05-09T04:51:02.724Z,16.51
2023-05-09T04:53:29.627Z,16.44
2023-05-09T04:55:57.184Z,16.53
2023-05-09T04:58:25.643Z,16.57
2023-05-09T05:00:53.292Z,16.58
2023-05-09T05:03:20.113Z,16.51
2023-05-09T05:05:47.130Z,16.48
2023-05-09T05:08:14.057Z,16.43
2023-05-09T05:10:42.142Z,16.40
2023-05-09T05:13:11.896Z,16.43
2023-05-09T05:15:43.310Z,16.53
2023-05-09T05:18:10.728Z,16.46
2023-05-09T05:20:41.607Z,16.52
2023-05-09T05:23:09.064Z,16.50
2023-05-09T05:25:35.742Z,16.39
2023-05-09T05:28:02.554Z,16.45
2023-05-09T05:30:29.410Z,16.48
2023-05-09T05:32:56.299Z,16.48
2023-05-09T05:35:24.658Z,16.46
2023-05-09T05:37:52.763Z,16.46
2023-05-09T05:40:19.910Z,16.40
2023-05-09T05:42:48.607Z,16.38
2023-05-09T05:45:16.589Z,16.42
2023-05-09T05:47:48.039Z,16.46
2023-05-09T05:50:15.114Z,16.54
2023-05-09T05:52:42.443Z,16.51
2023-05-09T05:55:13.111Z,16.54
2023-05-09T05:57:40.616Z,16.56
2023-05-09T06:00:12.313Z,16.62
2023-05-09T06:02:47.944Z,16.60
2023-05-09T06:05:22.602Z,16.57
2023-05-09T06:07:50.466Z,16.65
2023-05-09T06:10:17.252Z,16.63
2023-05-09T06:12:45.540Z,16.66
2023-05-09T06:15:12.551Z,16.62
2023-05-09T06:17:43.147Z,16.69
2023-05-09T06:20:10.086Z,16.75
2023-05-09T06:22:36.740Z,16.75
2023-05-09T06:25:03.516Z,16.85
2023-05-09T06:27:30.429Z,16.90
2023-05-09T06:29:57.148Z,16.77
2023-05-09T06:32:25.066Z,16.79
2023-05-09T06:34:52.688Z,16.81
2023-05-09T06:37:19.369Z,16.83
2023-05-09T06:39:46.005Z,16.81
2023-05-09T06:42:12.821Z,16.81
2023-05-09T06:44:39.807Z,16.83
2023-05-09T06:47:06.532Z,16.84
2023-05-09T06:49:33.314Z,16.75
2023-05-09T06:51:59.908Z,16.80
2023-05-09T06:54:26.580Z,16.73
2023-05-09T06:56:53.578Z,16.66
2023-05-09T06:59:20.408Z,16.74
2023-05-09T07:01:47.051Z,16.78
2023-05-09T07:04:13.745Z,16.78
2023-05-09T07:06:40.430Z,16.78
2023-05-09T07:09:07.151Z,16.74
2023-05-09T07:11:37.644Z,16.74
2023-05-09T07:14:04.477Z,16.75
2023-05-09T07:16:32.065Z,16.74
2023-05-09T07:18:59.321Z,16.81
2023-05-09T07:21:26.028Z,16.83
2023-05-09T07:23:52.743Z,16.80
2023-05-09T07:26:19.454Z,16.79
2023-05-09T07:28:46.153Z,16.73
2023-05-09T07:31:12.767Z,16.78
2023-05-09T07:33:39.666Z,16.84
2023-05-09T07:36:06.412Z,16.87
2023-05-09T07:38:33.136Z,16.82
2023-05-09T07:40:59.715Z,16.78
2023-05-09T07:43:27.253Z,16.83
2023-05-09T07:45:54.092Z,16.79
2023-05-09T07:48:20.835Z,16.76
2023-05-09T07:50:47.560Z,16.81
2023-05-09T07:53:14.321Z,16.82
2023-05-09T07:55:41.118Z,16.89
2023-05-09T07:58:07.909Z,16.81
2023-05-09T08:00:34.532Z,16.93
2023-05-09T08:03:01.873Z,16.87
2023-05-09T08:05:28.878Z,16.62
2023-05-09T08:07:55.571Z,16.58
2023-05-09T08:10:23.268Z,16.69
2023-05-09T08:12:50.062Z,16.69
2023-05-09T08:15:17.124Z,16.76
2023-05-09T08:17:44.396Z,16.69
2023-05-09T08:20:12.008Z,16.70
2023-05-09T08:22:39.790Z,16.66
2023-05-09T08:25:08.183Z,16.75
2023-05-09T08:27:35.001Z,16.72
2023-05-09T08:30:01.684Z,16.72
2023-05-09T08:32:28.467Z,16.65
2023-05-09T08:34:55.174Z,16.74
2023-05-09T08:37:21.952Z,16.66
2023-05-09T08:39:48.631Z,16.76
2023-05-09T08:42:18.812Z,16.70
2023-05-09T08:44:45.689Z,16.74
2023-05-09T08:47:13.401Z,16.77
2023-05-09T08:49:41.015Z,16.73
2023-05-09T08:52:08.282Z,16.79
2023-05-09T08:54:35.941Z,16.72
2023-05-09T08:57:03.178Z,16.77
2023-05-09T08:59:30.969Z,16.79
2023-05-09T09:01:58.418Z,16.77
2023-05-09T09:04:25.122Z,16.81
2023-05-09T09:06:53.870Z,16.83
2023-05-09T09:09:21.427Z,16.85
2023-05-09T09:11:48.441Z,16.80
2023-05-09T09:14:25.596Z,16.86
2023-05-09T09:16:54.607Z,16.94
2023-05-09T09:19:22.731Z,16.93
2023-05-09T09:21:54.002Z,16.92
2023-05-09T09:24:23.068Z,16.95
2023-05-09T09:26:51.478Z,16.95
2023-05-09T09:29:18.965Z,16.99
2023-05-09T09:31:46.688Z,16.96
2023-05-09T09:34:20.341Z,16.99
2023-05-09T09:36:48.460Z,17.05
2023-05-09T09:39:15.933Z,17.08
2023-05-09T09:41:44.646Z,17.17
2023-05-09T09:44:16.734Z,17.18
2023-05-09T09:46:45.035Z,17.20
2023-05-09T09:49:13.432Z,17.22
2023-05-09T09:51:41.060Z,17.26
2023-05-09T09:54:12.736Z,17.12
2023-05-09T09:56:41.697Z,17.31
2023-05-09T09:59:18.840Z,17.32
2023-05-09T10:02:04.941Z,17.33
2023-05-09T10:04:39.073Z,17.32
2023-05-09T10:07:08.419Z,17.37
2023-05-09T10:09:37.983Z,17.27
2023-05-09T10:12:06.579Z,17.22
2023-05-09T10:14:35.638Z,17.22
2023-05-09T10:17:05.067Z,17.13
2023-05-09T10:19:33.186Z,17.24
2023-05-09T10:22:05.998Z,17.23
2023-05-09T10:24:43.622Z,17.20
2023-05-09T10:27:11.778Z,17.21
2023-05-09T10:29:44.521Z,17.28
2023-05-09T10:32:40.420Z,17.26
2023-05-09T10:35:10.776Z,17.28
2023-05-09T10:37:37.800Z,17.25
2023-05-09T10:40:05.288Z,17.26
2023-05-09T10:42:32.238Z,17.25
2023-05-09T10:44:58.920Z,17.17
2023-05-09T10:47:28.010Z,17.22
2023-05-09T10:49:55.331Z,17.25
2023-05-09T10:52:25.046Z,17.28
2023-05-09T10:55:02.131Z,17.34
2023-05-09T10:57:30.622Z,17.40
2023-05-09T10:59:58.840Z,17.44
2023-05-09T11:02:29.499Z,17.46
2023-05-09T11:05:16.737Z,17.49
2023-05-09T11:07:43.800Z,17.50
2023-05-09T11:10:16.675Z,17.51
2023-05-09T11:12:58.047Z,17.45
2023-05-09T11:15:27.417Z,17.45
2023-05-09T11:18:12.854Z,17.52
2023-05-09T11:20:43.965Z,17.52
2023-05-09T11:23:11.841Z,17.57
2023-05-09T11:25:42.218Z,17.57
2023-05-09T11:28:08.858Z,17.52
2023-05-09T11:30:40.159Z,17.60
2023-05-09T11:33:21.110Z,17.60
2023-05-09T11:35:48.274Z,17.55
2023-05-09T11:38:21.324Z,17.65
2023-05-09T11:40:48.634Z,17.63
2023-05-09T11:43:15.821Z,17.60
2023-05-09T11:45:42.873Z,17.61
2023-05-09T11:48:10.416Z,17.59
2023-05-09T11:50:37.370Z,17.49
2023-05-09T11:53:04.003Z,17.53
2023-05-09T11:55:32.557Z,17.59
2023-05-09T11:57:59.470Z,17.60
2023-05-09T12:00:26.601Z,17.60
2023-05-09T12:02:54.055Z,17.63
2023-05-09T12:05:22.943Z,17.66
2023-05-09T12:07:49.806Z,17.61
2023-05-09T12:10:20.166Z,17.66
2023-05-09T12:12:50.969Z,17.66
2023-05-09T12:15:19.338Z,17.63
2023-05-09T12:17:48.171Z,17.68
2023-05-09T12:20:16.536Z,17.70
2023-05-09T12:22:44.129Z,17.60
2023-05-09T12:25:12.083Z,17.58
2023-05-09T12:27:40.481Z,17.61
2023-05-09T12:30:10.255Z,17.68
2023-05-09T12:32:39.499Z,17.72
2023-05-09T12:35:10.930Z,17.73
2023-05-09T12:37:38.848Z,17.70
2023-05-09T12:40:15.424Z,17.71
2023-05-09T12:42:46.049Z,17.79
2023-05-09T12:45:13.455Z,17.75
2023-05-09T12:47:41.940Z,17.71
2023-05-09T12:50:11.787Z,17.83
2023-05-09T12:52:54.169Z,17.88
2023-05-09T12:55:27.956Z,17.81
2023-05-09T12:58:02.695Z,17.80
2023-05-09T13:00:41.365Z,17.92
2023-05-09T13:03:31.247Z,17.96
2023-05-09T13:06:00.036Z,17.94
2023-05-09T13:08:27.956Z,17.96
2023-05-09T13:11:04.024Z,17.92
2023-05-09T13:13:41.909Z,18.00
2023-05-09T13:16:10.380Z,17.97
2023-05-09T13:18:38.365Z,17.96
2023-05-09T13:21:05.042Z,17.96
2023-05-09T13:23:31.739Z,17.97
2023-05-09T13:25:58.348Z,17.91
2023-05-09T13:28:25.177Z,17.83
2023-05-09T13:30:51.846Z,17.78
2023-05-09T13:33:25.945Z,17.85
2023-05-09T13:35:53.768Z,17.88
2023-05-09T13:38:20.453Z,17.92
2023-05-09T13:40:47.095Z,17.96
2023-05-09T13:43:13.666Z,18.06
2023-05-09T13:45:40.551Z,18.05
2023-05-09T13:48:07.197Z,17.98
2023-05-09T13:50:34.326Z,18.02
2023-05-09T13:53:01.047Z,18.07
2023-05-09T13:55:27.823Z,17.95
2023-05-09T13:57:54.958Z,18.09
2023-05-09T14:00:22.283Z,18.10
2023-05-09T14:02:49.003Z,18.12
2023-05-09T14:05:17.041Z,18.18
2023-05-09T14:07:44.997Z,18.11
2023-05-09T14:10:12.608Z,18.07
2023-05-09T14:12:40.599Z,18.11
2023-05-09T14:15:08.285Z,18.07
2023-05-09T14:17:35.132Z,18.05
2023-05-09T14:20:02.196Z,18.04
2023-05-09T14:22:28.762Z,18.09
2023-05-09T14:24:57.275Z,18.06
2023-05-09T14:27:25.129Z,18.15
2023-05-09T14:29:51.945Z,18.20
2023-05-09T14:32:18.568Z,18.16
2023-05-09T14:34:45.993Z,18.20
2023-05-09T14:37:15.466Z,18.19
2023-05-09T14:39:43.542Z,18.20
2023-05-09T14:42:11.733Z,18.22
2023-05-09T14:44:39.195Z,18.21
2023-05-09T14:47:06.141Z,18.25
2023-05-09T14:49:33.098Z,18.22
2023-05-09T14:52:00.173Z,18.22
2023-05-09T14:54:27.064Z,18.18
2023-05-09T14:56:53.720Z,18.16
2023-05-09T14:59:23.537Z,18.17
2023-05-09T15:01:52.632Z,18.16
2023-05-09T15:04:19.437Z,18.13
2023-05-09T15:06:46.289Z,18.11
2023-05-09T15:09:14.705Z,18.10
2023-05-09T15:11:48.193Z,18.10
2023-05-09T15:14:16.558Z,18.05
2023-05-09T15:16:43.617Z,18.00
2023-05-09T15:19:10.461Z,17.99
2023-05-09T15:21:37.088Z,18.01
2023-05-09T15:24:04.922Z,18.00
2023-05-09T15:26:32.040Z,17.98
2023-05-09T15:28:58.774Z,17.95
2023-05-09T15:31:25.963Z,17.93
2023-05-09T15:33:52.915Z,17.89
2023-05-09T15:36:19.606Z,17.91
2023-05-09T15:38:49.377Z,17.85
2023-05-09T15:41:17.248Z,17.93
2023-05-09T15:43:44.020Z,17.95
2023-05-09T15:46:11.143Z,17.93
2023-05-09T15:48:37.764Z,17.92
2023-05-09T15:51:04.776Z,17.93
2023-05-09T15:53:31.647Z,17.91
2023-05-09T15:55:58.300Z,17.96
2023-05-09T15:58:25.169Z,18.00
2023-05-09T16:00:51.956Z,18.01
2023-05-09T16:03:19.411Z,17.97
2023-05-09T16:05:46.320Z,17.96
2023-05-09T16:08:13.129Z,17.90
2023-05-09T16:10:40.788Z,17.89
2023-05-09T16:13:07.800Z,17.89
2023-05-09T16:15:35.149Z,17.85
2023-05-09T16:18:01.820Z,17.80
2023-05-09T16:20:28.515Z,17.76
2023-05-09T16:22:55.183Z,17.73
2023-05-09T16:25:21.974Z,17.66
2023-05-09T16:27:48.612Z,17.63
2023-05-09T16:30:16.137Z,17.56
2023-05-09T16:32:43.349Z,17.51
2023-05-09T16:35:10.292Z,17.45
2023-05-09T16:37:37.485Z,17.43
2023-05-09T16:40:04.841Z,17.44
2023-05-09T16:42:31.682Z,17.46
2023-05-09T16:44:58.337Z,17.42
2023-05-09T16:47:25.061Z,17.40
2023-05-09T16:49:51.993Z,17.24
2023-05-09T16:52:19.217Z,17.09
2023-05-09T16:54:46.151Z,17.08
2023-05-09T16:57:13.287Z,17.10
2023-05-09T16:59:40.296Z,17.10
2023-05-09T17:02:07.182Z,17.07
2023-05-09T17:04:36.757Z,17.00
2023-05-09T17:07:04.264Z,16.95
2023-05-09T17:09:30.856Z,16.90
2023-05-09T17:11:57.546Z,16.87
2023-05-09T17:14:24.572Z,16.88
2023-05-09T17:16:51.702Z,16.91
2023-05-09T17:19:20.527Z,17.00
2023-05-09T17:21:47.328Z,17.01
2023-05-09T17:24:13.981Z,17.10
2023-05-09T17:26:40.719Z,17.06
2023-05-09T17:29:07.406Z,16.95
2023-05-09T17:31:34.178Z,17.01
2023-05-09T17:34:01.419Z,16.99
2023-05-09T17:36:28.169Z,16.94
2023-05-09T17:38:54.751Z,16.93
2023-05-09T17:41:21.982Z,16.91
2023-05-09T17:43:48.700Z,16.92
2023-05-09T17:46:15.525Z,16.89
2023-05-09T17:48:42.537Z,16.85
2023-05-09T17:51:09.195Z,16.84
2023-05-09T17:53:35.830Z,16.83
2023-05-09T17:56:02.962Z,16.79
2023-05-09T17:58:30.070Z,16.72
2023-05-09T18:00:58.618Z,16.66
2023-05-09T18:03:32.367Z,16.64
2023-05-09T18:06:00.345Z,16.67
2023-05-09T18:08:27.534Z,16.84
2023-05-09T18:10:57.214Z,16.81
2023-05-09T18:13:24.292Z,16.80
2023-05-09T18:15:51.379Z,16.73
2023-05-09T18:18:18.234Z,16.68
2023-05-09T18:20:47.102Z,16.65
2023-05-09T18:23:14.965Z,16.64
2023-05-09T18:25:42.019Z,16.58
2023-05-09T18:28:08.959Z,16.44
2023-05-09T18:30:36.226Z,16.31
2023-05-09T18:33:03.188Z,16.25
2023-05-09T18:35:30.216Z,16.23
2023-05-09T18:37:57.073Z,16.25
2023-05-09T18:40:23.889Z,16.33
2023-05-09T18:42:50.435Z,16.40
2023-05-09T18:45:17.094Z,16.40
2023-05-09T18:47:43.699Z,16.41
2023-05-09T18:50:11.113Z,16.41
2023-05-09T18:52:37.689Z,16.53
2023-05-09T18:55:05.869Z,16.49
2023-05-09T18:57:33.854Z,16.49
2023-05-09T19:00:00.700Z,16.43
2023-05-09T19:02:27.575Z,16.35
2023-05-09T19:04:54.353Z,16.33
2023-05-09T19:07:21.051Z,16.38
2023-05-09T19:09:47.754Z,16.40
2023-05-09T19:12:16.324Z,16.47
2023-05-09T19:14:43.335Z,16.45
2023-05-09T19:17:10.839Z,16.36
2023-05-09T19:19:37.658Z,16.46
2023-05-09T19:22:04.863Z,16.59
2023-05-09T19:24:32.969Z,16.59
2023-05-09T19:26:59.612Z,16.53
2023-05-09T19:29:26.355Z,16.37
2023-05-09T19:31:53.049Z,16.20
2023-05-09T19:34:19.807Z,16.32
2023-05-09T19:36:46.449Z,16.28
2023-05-09T19:39:13.185Z,16.34
2023-05-09T19:41:40.644Z,16.40
2023-05-09T19:44:07.398Z,16.41
2023-05-09T19:46:35.259Z,16.44
2023-05-09T19:49:02.101Z,16.51
2023-05-09T19:51:29.648Z,16.50
2023-05-09T19:53:56.474Z,16.50
2023-05-09T19:56:23.181Z,16.51
2023-05-09T19:58:50.376Z,16.52
2023-05-09T20:01:19.059Z,16.61
2023-05-09T20:03:47.001Z,16.55
2023-05-09T20:06:13.815Z,16.55
2023-05-09T20:08:40.754Z,16.53
2023-05-09T20:11:07.849Z,16.46
2023-05-09T20:13:34.745Z,16.47
2023-05-09T20:16:03.241Z,16.36
2023-05-09T20:18:33.217Z,16.38
2023-05-09T20:21:03.875Z,16.31
2023-05-09T20:23:31.131Z,16.28
2023-05-09T20:25:57.918Z,16.33
2023-05-09T20:28:24.703Z,16.30
2023-05-09T20:30:51.398Z,16.28
2023-05-09T20:33:19.066Z,16.31
2023-05-09T20:35:45.828Z,16.32
2023-05-09T20:38:12.642Z,16.31
2023-05-09T20:40:40.361Z,16.33
2023-05-09T20:43:07.137Z,16.29
2023-05-09T20:45:33.971Z,16.30
2023-05-09T20:48:01.738Z,16.29
2023-05-09T20:50:28.748Z,16.36
2023-05-09T20:52:55.629Z,16.33
2023-05-09T20:55:22.450Z,16.31
2023-05-09T20:57:49.178Z,16.39
2023-05-09T21:00:16.550Z,16.35
2023-05-09T21:02:43.473Z,16.32
2023-05-09T21:05:10.400Z,16.32
2023-05-09T21:07:37.092Z,16.44
2023-05-09T21:10:04.029Z,16.39
2023-05-09T21:12:34.004Z,16.34
2023-05-09T21:15:03.115Z,16.36
2023-05-09T21:17:29.726Z,16.43
2023-05-09T21:19:56.622Z,16.38
2023-05-09T21:22:23.812Z,16.38
2023-05-09T21:24:51.006Z,16.31
2023-05-09T21:27:17.779Z,16.28
2023-05-09T21:29:44.589Z,16.28
2023-05-09T21:32:11.198Z,16.25
2023-05-09T21:34:37.903Z,16.18
2023-05-09T21:37:04.485Z,16.19
2023-05-09T21:39:32.536Z,16.23
2023-05-09T21:42:00.113Z,16.21
2023-05-09T21:44:26.797Z,16.04
2023-05-09T21:46:53.487Z,16.10
2023-05-09T21:49:21.652Z,16.08
2023-05-09T21:51:48.330Z,16.11
2023-05-09T21:54:15.256Z,16.09
2023-05-09T21:56:42.677Z,16.07
2023-05-09T21:59:09.438Z,16.02
2023-05-09T22:01:36.865Z,16.01
2023-05-09T22:04:03.822Z,16.03
2023-05-09T22:06:31.305Z,16.08
2023-05-09T22:08:58.021Z,16.05
2023-05-09T22:11:24.887Z,16.03
2023-05-09T22:13:52.033Z,16.01
2023-05-09T22:16:18.702Z,15.95
2023-05-09T22:18:45.413Z,15.90
2023-05-09T22:21:12.676Z,15.86
2023-05-09T22:23:39.445Z,15.83
2023-05-09T22:26:06.486Z,15.78
2023-05-09T22:28:33.157Z,15.80
2023-05-09T22:30:59.758Z,15.74
2023-05-09T22:33:26.414Z,15.76
2023-05-09T22:35:53.036Z,15.75
2023-05-09T22:38:19.688Z,15.76
2023-05-09T22:40:46.351Z,15.77
2023-05-09T22:43:13.051Z,15.70
2023-05-09T22:45:39.700Z,15.78
2023-05-09T22:48:06.694Z,15.78
2023-05-09T22:50:33.366Z,15.77
2023-05-09T22:53:00.344Z,15.77
2023-05-09T22:55:27.259Z,15.77
2023-05-09T22:57:53.982Z,15.73
2023-05-09T23:00:20.686Z,15.74
2023-05-09T23:02:47.671Z,15.70
2023-05-09T23:05:14.322Z,15.66
2023-05-09T23:07:41.034Z,15.67
2023-05-09T23:10:08.077Z,15.65
2023-05-09T23:12:34.792Z,15.66
2023-05-09T23:15:01.469Z,15.66
2023-05-09T23:17:28.184Z,15.67
2023-05-09T23:19:54.782Z,15.61
2023-05-09T23:22:21.637Z,15.58
2023-05-09T23:24:48.448Z,15.51
2023-05-09T23:27:15.197Z,15.47
2023-05-09T23:29:41.833Z,15.51
2023-05-09T23:32:08.577Z,15.52
2023-05-09T23:34:36.684Z,15.58
2023-05-09T23:37:04.224Z,15.61
2023-05-09T23:39:31.527Z,15.55
2023-05-09T23:41:58.289Z,15.45
2023-05-09T23:44:25.597Z,15.49
2023-05-09T23:46:52.415Z,15.48
2023-05-09T23:49:19.134Z,15.48
2023-05-09T23:51:45.777Z,15.48
2023-05-09T23:54:12.476Z,15.46
2023-05-09T23:56:39.148Z,15.42
2023-05-09T23:59:05.785Z,15.46
